createdAt,value
2019-06-26T00:00:47.211Z,98.50
2019-06-26T00:02:13.334Z,98.40
2019-06-26T00:03:38.980Z,98.40
2019-06-26T00:05:05.609Z,98.40
2019-06-26T00:06:31.153Z,98.60
2019-06-26T00:07:57.403Z,98.60
2019-06-26T00:09:22.877Z,98.70
2019-06-26T00:10:49.063Z,98.50
2019-06-26T00:12:14.677Z,98.40
2019-06-26T00:13:40.960Z,98.50
2019-06-26T00:15:06.815Z,98.60
2019-06-26T00:16:32.928Z,98.40
2019-06-26T00:17:58.445Z,98.30
2019-06-26T00:19:24.617Z,98.40
2019-06-26T00:20:50.124Z,98.40
2019-06-26T00:22:16.385Z,98.70
2019-06-26T00:23:41.971Z,98.60
2019-06-26T00:25:08.527Z,98.60
2019-06-26T00:26:34.048Z,99.10
2019-06-26T00:28:00.145Z,98.80
2019-06-26T00:29:25.816Z,98.80
2019-06-26T00:30:51.864Z,98.90
2019-06-26T00:32:17.412Z,98.80
2019-06-26T00:33:43.551Z,98.70
2019-06-26T00:35:09.268Z,98.70
2019-06-26T00:36:35.544Z,98.60
2019-06-26T00:38:01.047Z,98.60
2019-06-26T00:39:27.198Z,98.60
2019-06-26T00:40:52.684Z,98.80
2019-06-26T00:42:18.774Z,98.70
2019-06-26T00:43:44.357Z,98.60
2019-06-26T00:45:10.739Z,98.60
2019-06-26T00:46:36.256Z,98.60
2019-06-26T00:48:02.466Z,98.60
2019-06-26T00:49:28.146Z,98.80
2019-06-26T00:50:54.372Z,98.70
2019-06-26T00:52:20.003Z,98.70
2019-06-26T00:53:46.088Z,98.60
2019-06-26T00:55:11.951Z,98.70
2019-06-26T00:56:38.182Z,98.70
2019-06-26T00:58:03.789Z,98.70
2019-06-26T00:59:30.040Z,98.80
2019-06-26T01:00:55.666Z,98.80
2019-06-26T01:02:21.907Z,98.90
2019-06-26T02:44:06.680Z,99.90
2019-06-26T02:45:32.961Z,99.90
2019-06-26T02:47:17.740Z,99.90
2019-06-26T02:48:26.304Z,99.90
2019-06-26T02:49:51.836Z,99.90
2019-06-26T02:51:18.056Z,99.90
2019-06-26T02:52:43.772Z,99.90
2019-06-26T02:54:09.841Z,99.90
2019-06-26T02:55:35.377Z,99.90
2019-06-26T02:57:01.482Z,99.90
2019-06-26T02:58:27.139Z,99.90
2019-06-26T02:59:53.452Z,99.90
2019-06-26T03:01:19.104Z,99.90
2019-06-26T03:02:45.211Z,99.90
2019-06-26T03:04:10.685Z,99.90
2019-06-26T03:05:36.794Z,99.90
2019-06-26T03:07:02.348Z,99.90
2019-06-26T03:08:28.614Z,99.90
2019-06-26T03:09:54.322Z,99.90
2019-06-26T03:11:20.538Z,99.90
2019-06-26T03:12:46.136Z,99.90
2019-06-26T03:14:12.261Z,99.90
2019-06-26T03:15:37.778Z,99.90
2019-06-26T03:17:03.898Z,99.90
2019-06-26T03:18:29.678Z,99.90
2019-06-26T03:19:55.890Z,99.90
2019-06-26T03:21:21.481Z,99.90
2019-06-26T03:22:47.629Z,99.90
2019-06-26T03:24:13.209Z,99.90
2019-06-26T03:25:39.389Z,99.90
2019-06-26T03:27:04.971Z,99.90
2019-06-26T03:28:31.235Z,99.90
2019-06-26T03:29:56.777Z,99.90
2019-06-26T03:31:23.065Z,99.90
2019-06-26T03:32:48.696Z,99.90
2019-06-26T03:34:14.826Z,99.90
2019-06-26T03:35:40.981Z,99.90
2019-06-26T03:37:07.576Z,99.90
2019-06-26T03:38:33.132Z,99.90
2019-06-26T03:39:59.189Z,99.90
2019-06-26T03:41:24.886Z,99.90
2019-06-26T03:42:50.960Z,99.90
2019-06-26T03:44:16.685Z,99.90
2019-06-26T03:45:42.828Z,99.90
2019-06-26T03:47:08.369Z,99.90
2019-06-26T03:48:34.514Z,99.90
2019-06-26T03:50:00.035Z,99.90
2019-06-26T03:51:26.260Z,99.90
2019-06-26T03:52:51.839Z,99.90
2019-06-26T03:54:18.135Z,99.90
2019-06-26T03:55:43.770Z,99.90
2019-06-26T03:57:09.834Z,99.90
2019-06-26T03:58:35.356Z,99.90
2019-06-26T04:00:01.975Z,99.90
2019-06-26T04:01:27.608Z,99.90
2019-06-26T04:02:53.715Z,99.90
2019-06-26T04:04:19.287Z,99.90
2019-06-26T04:05:45.396Z,99.90
2019-06-26T04:07:10.924Z,99.90
2019-06-26T04:08:37.017Z,99.90
2019-06-26T04:10:02.547Z,99.90
2019-06-26T04:11:28.688Z,99.90
2019-06-26T04:12:54.192Z,99.90
2019-06-26T04:14:20.312Z,99.90
2019-06-26T04:15:45.853Z,99.90
2019-06-26T04:17:12.169Z,99.90
2019-06-26T04:18:37.687Z,99.90
2019-06-26T04:20:03.806Z,99.90
2019-06-26T04:21:29.322Z,99.90
2019-06-26T04:22:55.538Z,99.90
2019-06-26T04:24:21.107Z,99.90
2019-06-26T04:25:47.379Z,99.90
2019-06-26T04:27:12.872Z,99.90
2019-06-26T04:28:38.933Z,99.90
2019-06-26T04:30:05.095Z,99.90
2019-06-26T04:31:31.279Z,99.90
2019-06-26T04:32:56.863Z,99.90
2019-06-26T04:34:22.956Z,99.90
2019-06-26T04:35:48.560Z,99.90
2019-06-26T04:37:14.762Z,99.90
2019-06-26T04:38:40.403Z,99.90
2019-06-26T04:40:07.070Z,99.90
2019-06-26T04:41:32.539Z,99.90
2019-06-26T04:42:58.614Z,99.90
2019-06-26T04:44:24.360Z,99.90
2019-06-26T04:45:58.146Z,99.90
2019-06-26T04:47:17.633Z,99.90
2019-06-26T04:48:43.823Z,99.90
2019-06-26T04:50:10.063Z,99.90
2019-06-26T04:51:36.196Z,99.90
2019-06-26T04:53:01.870Z,99.90
2019-06-26T04:54:28.070Z,99.90
2019-06-26T04:55:53.695Z,99.90
2019-06-26T04:57:19.880Z,99.90
2019-06-26T04:58:45.411Z,99.90
2019-06-26T05:00:13.791Z,99.90
2019-06-26T05:01:39.302Z,99.90
2019-06-26T05:03:05.900Z,99.90
2019-06-26T05:04:31.418Z,99.90
2019-06-26T05:05:57.535Z,99.90
2019-06-26T05:07:23.070Z,99.70
2019-06-26T05:08:49.307Z,99.50
2019-06-26T05:10:16.450Z,99.50
2019-06-26T05:11:42.513Z,99.40
2019-06-26T05:13:08.105Z,99.40
2019-06-26T05:14:34.219Z,99.30
2019-06-26T05:16:13.857Z,99.30
2019-06-26T05:17:28.160Z,99.10
2019-06-26T05:18:53.687Z,98.90
2019-06-26T05:20:20.101Z,98.90
2019-06-26T05:21:45.704Z,98.80
2019-06-26T05:23:11.888Z,98.80
2019-06-26T05:24:37.399Z,98.70
2019-06-26T05:26:03.567Z,98.60
2019-06-26T05:27:29.068Z,98.60
2019-06-26T05:28:55.186Z,98.40
2019-06-26T05:30:21.612Z,98.50
2019-06-26T05:31:47.835Z,98.40
2019-06-26T05:33:13.459Z,98.20
2019-06-26T05:34:39.532Z,98.20
2019-06-26T05:36:05.224Z,98.30
2019-06-26T05:37:31.421Z,98.10
2019-06-26T05:38:56.904Z,98.10
2019-06-26T05:40:23.610Z,98.00
2019-06-26T05:41:49.250Z,98.10
2019-06-26T05:43:15.310Z,97.90
2019-06-26T05:44:40.821Z,97.90
2019-06-26T05:46:07.105Z,97.80
2019-06-26T05:47:32.771Z,97.80
2019-06-26T05:48:58.844Z,97.90
2019-06-26T05:50:25.767Z,97.80
2019-06-26T05:51:52.140Z,97.70
2019-06-26T05:53:17.695Z,97.70
2019-06-26T05:54:43.753Z,97.60
2019-06-26T05:56:09.269Z,97.70
2019-06-26T05:57:35.535Z,97.70
2019-06-26T05:59:01.012Z,97.60
2019-06-26T06:00:27.254Z,97.60
2019-06-26T06:01:52.869Z,97.40
2019-06-26T06:03:19.056Z,97.40
2019-06-26T06:04:44.553Z,97.40
2019-06-26T06:06:10.758Z,97.30
2019-06-26T06:07:36.323Z,97.20
2019-06-26T06:09:02.670Z,97.20
2019-06-26T06:10:28.275Z,97.30
2019-06-26T06:11:54.424Z,97.20
2019-06-26T06:13:19.952Z,97.10
2019-06-26T06:14:46.175Z,97.20
2019-06-26T06:16:11.892Z,97.10
2019-06-26T06:17:38.118Z,97.10
2019-06-26T06:19:03.678Z,97.20
2019-06-26T06:20:38.755Z,97.10
2019-06-26T06:22:04.350Z,97.00
2019-06-26T06:23:30.462Z,97.00
2019-06-26T06:24:55.955Z,96.90
2019-06-26T06:26:22.195Z,96.90
2019-06-26T06:27:47.719Z,96.90
2019-06-26T06:29:13.812Z,96.90
2019-06-26T06:30:39.410Z,97.00
2019-06-26T06:32:05.639Z,97.00
2019-06-26T06:33:31.135Z,97.10
2019-06-26T06:34:57.219Z,97.10
2019-06-26T06:36:22.745Z,97.10
2019-06-26T06:37:48.956Z,97.10
2019-06-26T06:39:14.450Z,97.00
2019-06-26T06:40:40.619Z,97.00
2019-06-26T06:42:06.241Z,97.00
2019-06-26T06:43:32.386Z,96.90
2019-06-26T06:44:58.032Z,96.80
2019-06-26T06:46:24.327Z,96.70
2019-06-26T06:47:50.066Z,96.70
2019-06-26T06:49:16.153Z,96.60
2019-06-26T06:50:41.683Z,96.50
2019-06-26T06:52:07.948Z,96.50
2019-06-26T06:53:33.587Z,96.40
2019-06-26T06:54:59.706Z,96.30
2019-06-26T06:56:25.234Z,96.30
2019-06-26T06:57:51.394Z,96.00
2019-06-26T06:59:16.974Z,95.90
2019-06-26T07:00:43.229Z,95.90
2019-06-26T07:02:08.936Z,95.80
2019-06-26T07:03:35.145Z,95.70
2019-06-26T07:05:00.773Z,95.80
2019-06-26T07:06:26.943Z,95.70
2019-06-26T07:07:52.531Z,95.60
2019-06-26T07:09:18.693Z,95.60
2019-06-26T07:10:44.845Z,95.60
2019-06-26T07:12:11.155Z,95.50
2019-06-26T07:13:36.807Z,95.40
2019-06-26T07:15:03.061Z,95.30
2019-06-26T07:16:28.631Z,95.20
2019-06-26T07:17:55.335Z,95.20
2019-06-26T07:19:20.892Z,95.40
2019-06-26T07:20:47.120Z,95.80
2019-06-26T07:22:12.637Z,96.30
2019-06-26T07:23:38.843Z,96.50
2019-06-26T07:25:04.493Z,96.40
2019-06-26T07:26:30.731Z,96.70
2019-06-26T07:27:56.334Z,97.40
2019-06-26T07:29:24.209Z,97.50
2019-06-26T07:30:49.778Z,97.50
2019-06-26T07:32:15.812Z,97.70
2019-06-26T07:33:41.575Z,97.70
2019-06-26T07:35:07.914Z,97.50
2019-06-26T07:36:33.495Z,97.70
2019-06-26T07:38:00.296Z,97.60
2019-06-26T07:39:26.220Z,97.70
2019-06-26T07:40:52.763Z,97.70
2019-06-26T07:42:18.436Z,97.80
2019-06-26T07:43:44.611Z,97.80
2019-06-26T07:45:10.427Z,97.80
2019-06-26T07:46:36.513Z,97.80
2019-06-26T07:48:02.053Z,97.70
2019-06-26T07:49:28.409Z,97.60
2019-06-26T07:50:54.335Z,97.50
2019-06-26T07:52:20.730Z,97.50
2019-06-26T07:53:46.471Z,97.80
2019-06-26T07:55:13.118Z,97.40
2019-06-26T07:56:38.618Z,97.40
2019-06-26T07:58:04.773Z,97.20
2019-06-26T07:59:30.296Z,97.10
2019-06-26T08:00:56.488Z,96.90
2019-06-26T08:02:22.058Z,96.90
2019-06-26T08:03:48.179Z,96.70
2019-06-26T08:05:13.936Z,96.60
2019-06-26T08:06:40.056Z,96.60
2019-06-26T08:08:05.663Z,96.50
2019-06-26T08:09:31.829Z,96.50
2019-06-26T08:10:57.509Z,96.40
2019-06-26T08:12:25.542Z,96.40
2019-06-26T08:13:51.120Z,96.40
2019-06-26T08:15:19.061Z,96.30
2019-06-26T08:16:44.535Z,96.20
2019-06-26T08:18:10.667Z,96.10
2019-06-26T08:19:36.227Z,95.90
2019-06-26T08:21:12.116Z,95.90
2019-06-26T08:22:29.749Z,95.90
2019-06-26T08:23:59.284Z,95.80
2019-06-26T08:25:34.910Z,95.70
2019-06-26T08:27:03.429Z,95.60
2019-06-26T08:28:28.902Z,95.40
2019-06-26T08:29:55.291Z,95.50
2019-06-26T08:31:21.332Z,95.40
2019-06-26T08:32:47.531Z,95.40
2019-06-26T08:34:13.114Z,95.40
2019-06-26T08:35:39.309Z,95.40
2019-06-26T08:37:05.032Z,95.40
2019-06-26T08:38:31.504Z,95.30
2019-06-26T08:39:57.034Z,95.30
2019-06-26T08:41:23.684Z,95.40
2019-06-26T08:42:49.508Z,95.30
2019-06-26T08:44:15.887Z,95.20
2019-06-26T08:45:41.804Z,95.10
2019-06-26T08:47:08.250Z,95.10
2019-06-26T08:48:39.394Z,95.30
2019-06-26T08:50:02.175Z,95.70
2019-06-26T08:51:28.337Z,95.40
2019-06-26T08:52:54.743Z,95.40
2019-06-26T08:54:20.572Z,95.40
2019-06-26T08:55:46.765Z,95.50
2019-06-26T08:57:12.764Z,95.50
2019-06-26T08:58:39.199Z,95.70
2019-06-26T09:00:05.495Z,95.70
2019-06-26T09:01:32.011Z,95.70
2019-06-26T09:02:57.507Z,95.70
2019-06-26T09:04:23.670Z,95.60
2019-06-26T09:05:49.565Z,95.50
2019-06-26T09:07:15.768Z,95.50
2019-06-26T09:08:41.371Z,95.50
2019-06-26T09:10:07.825Z,95.50
2019-06-26T09:11:33.387Z,95.60
2019-06-26T09:12:59.859Z,95.40
2019-06-26T09:14:25.691Z,95.20
2019-06-26T09:15:51.941Z,95.10
2019-06-26T09:17:18.347Z,95.10
2019-06-26T09:18:44.427Z,95.10
2019-06-26T09:20:10.579Z,94.60
2019-06-26T09:21:36.748Z,94.50
2019-06-26T09:23:02.679Z,94.40
2019-06-26T09:24:28.964Z,94.40
2019-06-26T09:25:54.669Z,94.30
2019-06-26T09:27:20.889Z,94.30
2019-06-26T09:28:46.732Z,94.30
2019-06-26T09:30:13.227Z,94.30
2019-06-26T09:31:38.808Z,94.20
2019-06-26T09:33:05.085Z,94.00
2019-06-26T09:34:30.587Z,94.00
2019-06-26T09:35:56.927Z,93.80
2019-06-26T09:37:22.543Z,93.60
2019-06-26T09:38:48.679Z,93.50
2019-06-26T09:40:14.524Z,93.30
2019-06-26T09:41:40.673Z,93.00
2019-06-26T09:43:06.280Z,93.10
2019-06-26T09:44:32.369Z,92.90
2019-06-26T09:45:58.356Z,92.90
2019-06-26T09:47:24.624Z,92.80
2019-06-26T09:48:53.258Z,92.60
2019-06-26T09:50:18.476Z,92.50
2019-06-26T09:51:44.151Z,92.50
2019-06-26T09:53:10.228Z,92.50
2019-06-26T09:54:35.716Z,92.50
2019-06-26T09:56:01.825Z,92.30
2019-06-26T09:57:27.583Z,92.30
2019-06-26T09:58:53.855Z,92.60
2019-06-26T10:00:20.541Z,93.10
2019-06-26T10:01:46.747Z,93.60
2019-06-26T10:03:12.341Z,93.60
2019-06-26T10:04:38.552Z,93.70
2019-06-26T10:06:04.193Z,93.60
2019-06-26T10:07:30.322Z,93.80
2019-06-26T10:08:55.890Z,94.30
2019-06-26T10:10:22.186Z,94.10
2019-06-26T10:11:47.752Z,94.20
2019-06-26T10:13:13.819Z,94.30
2019-06-26T10:14:47.199Z,94.50
2019-06-26T10:16:07.287Z,94.60
2019-06-26T10:17:32.960Z,94.60
2019-06-26T10:19:09.453Z,95.10
2019-06-26T10:20:26.324Z,94.70
2019-06-26T10:21:52.460Z,94.90
2019-06-26T10:23:18.042Z,94.80
2019-06-26T10:24:44.212Z,94.80
2019-06-26T11:24:37.159Z,95.20
2019-06-26T11:26:04.683Z,95.40
2019-06-26T11:27:30.309Z,95.50
2019-06-26T11:28:56.442Z,95.40
2019-06-26T11:30:24.456Z,95.40
2019-06-26T11:31:50.633Z,95.60
2019-06-26T11:33:16.149Z,95.90
2019-06-26T11:34:42.281Z,95.80
2019-06-26T11:36:07.728Z,95.60
2019-06-26T11:37:33.859Z,95.60
2019-06-26T11:38:59.414Z,95.60
2019-06-26T11:40:25.544Z,95.40
2019-06-26T11:41:51.042Z,95.50
2019-06-26T11:43:17.159Z,95.30
2019-06-26T11:44:42.640Z,95.60
2019-06-26T11:46:08.728Z,96.00
2019-06-26T11:47:34.312Z,95.90
2019-06-26T11:49:00.547Z,95.90
2019-06-26T11:50:26.192Z,95.50
2019-06-26T11:51:52.309Z,95.80
2019-06-26T11:53:17.872Z,95.50
2019-06-26T11:54:44.142Z,95.50
2019-06-26T11:56:10.331Z,95.50
2019-06-26T11:57:36.587Z,95.20
2019-06-26T11:59:02.315Z,95.40
2019-06-26T12:00:28.824Z,95.00
2019-06-26T12:01:54.377Z,95.20
2019-06-26T12:03:20.867Z,95.20
2019-06-26T12:04:46.606Z,95.10
2019-06-26T12:06:18.916Z,95.00
2019-06-26T12:07:40.079Z,94.80
2019-06-26T12:09:09.330Z,94.70
2019-06-26T12:10:35.002Z,95.10
2019-06-26T12:12:01.225Z,95.10
2019-06-26T12:13:26.761Z,95.00
2019-06-26T12:14:53.026Z,94.90
2019-06-26T12:16:18.550Z,95.20
2019-06-26T12:17:44.748Z,94.90
2019-06-26T12:19:10.376Z,95.10
2019-06-26T12:20:36.676Z,95.30
2019-06-26T12:22:02.276Z,95.30
2019-06-26T12:23:28.431Z,95.40
2019-06-26T12:24:53.993Z,95.50
2019-06-26T12:26:20.224Z,95.50
2019-06-26T12:27:45.952Z,95.90
2019-06-26T12:29:12.056Z,96.10
2019-06-26T12:30:37.714Z,96.30
2019-06-26T12:32:04.137Z,96.20
2019-06-26T12:33:29.665Z,96.90
2019-06-26T12:34:55.878Z,97.10
2019-06-26T12:36:21.418Z,96.80
2019-06-26T12:37:47.633Z,96.80
2019-06-26T12:39:13.199Z,96.80
2019-06-26T12:40:39.727Z,96.80
2019-06-26T12:42:05.631Z,96.30
2019-06-26T12:43:31.843Z,96.40
2019-06-26T12:44:57.389Z,96.50
2019-06-26T12:46:23.765Z,96.20
2019-06-26T12:47:49.438Z,96.20
2019-06-26T12:49:15.527Z,96.30
2019-06-26T12:50:41.173Z,96.00
2019-06-26T12:52:07.473Z,96.20
2019-06-26T12:53:34.633Z,96.20
2019-06-26T12:55:00.794Z,96.50
2019-06-26T12:56:26.356Z,97.00
2019-06-26T12:57:52.513Z,96.70
2019-06-26T12:59:18.225Z,97.00
2019-06-26T13:00:44.482Z,97.10
2019-06-26T13:02:10.278Z,97.30
2019-06-26T13:03:36.430Z,97.10
2019-06-26T13:05:04.976Z,97.20
2019-06-26T13:06:31.033Z,97.00
2019-06-26T13:07:56.549Z,97.00
2019-06-26T13:09:22.893Z,96.90
2019-06-26T13:10:50.752Z,96.90
2019-06-26T13:12:17.005Z,97.20
2019-06-26T13:13:42.884Z,97.40
2019-06-26T13:15:09.842Z,97.20
2019-06-26T13:16:35.473Z,97.70
2019-06-26T13:18:01.994Z,97.70
2019-06-26T13:19:27.523Z,97.70
2019-06-26T13:20:53.947Z,97.60
2019-06-26T13:22:19.571Z,97.70
2019-06-26T13:23:45.724Z,97.50
2019-06-26T13:25:15.671Z,97.50
2019-06-26T13:26:39.900Z,97.00
2019-06-26T13:28:05.657Z,97.30
2019-06-26T13:29:31.757Z,97.20
2019-06-26T13:30:57.276Z,97.20
2019-06-26T13:32:23.363Z,97.50
2019-06-26T13:33:48.891Z,97.40
2019-06-26T13:35:15.538Z,97.40
2019-06-26T13:36:41.347Z,97.50
2019-06-26T13:38:07.654Z,97.30
2019-06-26T13:39:33.414Z,97.20
2019-06-26T13:40:59.536Z,97.40
2019-06-26T13:42:25.083Z,97.40
2019-06-26T13:43:51.198Z,97.50
2019-06-26T13:45:17.323Z,97.50
2019-06-26T13:46:43.527Z,97.50
2019-06-26T13:48:09.193Z,97.50
2019-06-26T13:49:35.546Z,97.40
2019-06-26T13:51:09.151Z,97.30
2019-06-26T13:52:29.001Z,97.30
2019-06-26T13:53:54.511Z,97.10
2019-06-26T13:55:20.879Z,97.00
2019-06-26T13:56:46.403Z,97.20
2019-06-26T13:58:12.621Z,97.20
2019-06-26T13:59:38.357Z,97.20
2019-06-26T14:01:04.435Z,97.20
2019-06-26T14:02:29.960Z,97.20
2019-06-26T14:03:56.079Z,97.20
2019-06-26T14:05:21.911Z,97.20
2019-06-26T14:06:48.246Z,97.20
2019-06-26T14:08:13.784Z,97.10
2019-06-26T14:09:39.913Z,97.20
2019-06-26T14:11:07.581Z,97.00
2019-06-26T14:12:33.399Z,97.00
2019-06-26T14:13:58.975Z,96.70
2019-06-26T14:15:25.291Z,96.80
2019-06-26T14:16:50.857Z,96.60
2019-06-26T14:18:16.993Z,97.00
2019-06-26T14:19:53.072Z,97.20
2019-06-26T14:21:25.770Z,97.30
2019-06-26T14:22:46.491Z,97.00
2019-06-26T14:24:12.776Z,97.10
2019-06-26T14:25:38.681Z,97.10
2019-06-26T14:27:05.055Z,97.30
2019-06-26T14:28:30.686Z,97.30
2019-06-26T14:29:56.777Z,97.20
2019-06-26T14:31:22.320Z,97.10
2019-06-26T14:32:48.568Z,97.30
2019-06-26T14:34:14.063Z,97.50
2019-06-26T14:35:40.279Z,97.50
2019-06-26T14:37:05.923Z,97.60
2019-06-26T14:38:32.155Z,97.80
2019-06-26T14:39:57.700Z,97.90
2019-06-26T14:41:24.031Z,97.90
2019-06-26T14:42:49.640Z,98.00
2019-06-26T14:44:15.879Z,97.70
2019-06-26T14:45:41.642Z,97.50
2019-06-26T14:47:30.685Z,97.60
2019-06-26T14:48:56.784Z,97.80
2019-06-26T14:50:23.123Z,97.90
2019-06-26T14:51:49.260Z,97.90
2019-06-26T14:53:14.837Z,97.50
2019-06-26T14:54:41.228Z,97.60
2019-06-26T14:56:06.899Z,97.40
2019-06-26T14:57:33.046Z,97.30
2019-06-26T14:58:58.558Z,97.70
2019-06-26T15:00:25.083Z,97.80
2019-06-26T15:01:50.669Z,97.90
2019-06-26T15:03:16.814Z,97.90
2019-06-26T15:04:46.008Z,97.90
2019-06-26T15:06:16.260Z,97.90
2019-06-26T15:07:37.391Z,97.80
2019-06-26T15:09:03.448Z,97.90
2019-06-26T15:10:28.973Z,97.80
2019-06-26T15:11:55.138Z,98.10
2019-06-26T15:13:20.663Z,97.80
2019-06-26T15:14:46.781Z,97.80
2019-06-26T15:16:12.275Z,98.00
2019-06-26T15:17:38.513Z,98.20
2019-06-26T15:19:04.005Z,97.90
2019-06-26T15:20:30.197Z,98.00
2019-06-26T15:21:58.794Z,98.10
2019-06-26T15:23:23.611Z,98.10
2019-06-26T15:24:49.440Z,98.00
2019-06-26T15:26:15.588Z,98.00
2019-06-26T15:27:41.231Z,98.10
2019-06-26T15:29:07.355Z,98.20
2019-06-26T15:30:32.817Z,98.00
2019-06-26T15:31:58.928Z,98.00
2019-06-26T15:33:24.520Z,97.80
2019-06-26T15:34:50.687Z,97.80
2019-06-26T15:36:16.189Z,97.80
2019-06-26T15:37:44.774Z,97.60
2019-06-26T15:39:09.726Z,98.00
2019-06-26T15:40:35.932Z,98.10
2019-06-26T15:42:01.441Z,97.90
2019-06-26T15:43:27.544Z,97.90
2019-06-26T15:44:53.231Z,97.90
2019-06-26T15:46:19.316Z,98.00
2019-06-26T15:47:44.863Z,97.90
2019-06-26T15:49:10.968Z,98.00
2019-06-26T15:50:36.789Z,98.10
2019-06-26T15:52:14.531Z,98.30
2019-06-26T15:53:30.148Z,98.60
2019-06-26T15:54:56.259Z,98.40
2019-06-26T15:56:21.892Z,98.50
2019-06-26T15:57:47.979Z,98.30
2019-06-26T15:59:13.516Z,98.20
2019-06-26T16:00:39.757Z,98.20
2019-06-26T16:02:05.469Z,98.30
2019-06-26T16:03:31.621Z,98.90
2019-06-26T16:04:57.154Z,98.80
2019-06-26T16:06:23.369Z,98.80
2019-06-26T16:07:48.973Z,98.90
2019-06-26T16:09:15.112Z,98.90
2019-06-26T16:10:40.631Z,99.00
2019-06-26T16:12:06.908Z,98.90
2019-06-26T16:13:32.424Z,98.90
2019-06-26T16:14:58.545Z,98.80
2019-06-26T16:16:24.868Z,98.80
2019-06-26T16:18:04.762Z,98.70
2019-06-26T16:19:30.315Z,98.90
2019-06-26T16:20:56.543Z,99.50
2019-06-26T16:22:31.607Z,99.40
2019-06-26T16:23:49.987Z,99.20
2019-06-26T16:25:16.019Z,99.10
2019-06-26T16:26:42.187Z,99.50
2019-06-26T16:28:07.924Z,99.30
2019-06-26T16:29:34.123Z,99.30
2019-06-26T16:30:59.860Z,99.30
2019-06-26T16:32:26.064Z,99.30
2019-06-26T16:33:51.599Z,99.20
2019-06-26T16:35:18.112Z,99.30
2019-06-26T16:36:43.750Z,99.30
2019-06-26T16:38:09.859Z,99.40
2019-06-26T16:39:35.517Z,99.50
2019-06-26T16:41:01.580Z,99.40
2019-06-26T16:42:27.067Z,99.50
2019-06-26T16:43:53.185Z,99.40
2019-06-26T16:45:19.033Z,99.20
2019-06-26T16:46:45.166Z,99.10
2019-06-26T16:48:10.756Z,99.00
2019-06-26T16:49:36.868Z,99.10
2019-06-26T16:51:02.401Z,99.20
2019-06-26T16:52:28.556Z,99.00
2019-06-26T16:53:54.067Z,98.90
2019-06-26T16:55:20.178Z,99.00
2019-06-26T16:56:45.855Z,99.10
2019-06-26T16:58:12.060Z,99.00
2019-06-26T16:59:37.579Z,99.00
2019-06-26T17:01:03.824Z,99.10
2019-06-26T17:02:29.350Z,99.20
2019-06-26T17:03:55.424Z,99.00
2019-06-26T17:05:21.072Z,99.00
2019-06-26T17:06:47.220Z,99.10
2019-06-26T17:08:12.851Z,99.00
2019-06-26T17:09:39.146Z,99.00
2019-06-26T17:11:04.775Z,98.90
2019-06-26T17:12:30.987Z,98.60
2019-06-26T17:13:56.515Z,98.50
2019-06-26T17:15:22.841Z,98.40
2019-06-26T17:16:48.378Z,98.30
2019-06-26T17:18:14.456Z,98.30
2019-06-26T17:19:40.073Z,98.20
2019-06-26T17:21:06.421Z,98.40
2019-06-26T17:22:32.034Z,98.00
2019-06-26T17:23:58.180Z,98.00
2019-06-26T17:25:23.936Z,97.90
2019-06-26T17:26:50.053Z,97.90
2019-06-26T17:28:15.580Z,98.10
2019-06-26T17:29:41.647Z,98.10
2019-06-26T17:31:07.233Z,98.00
2019-06-26T17:32:33.283Z,97.80
2019-06-26T17:33:58.772Z,97.80
2019-06-26T17:35:24.876Z,98.00
2019-06-26T17:36:50.404Z,98.00
2019-06-26T17:38:16.597Z,98.00
2019-06-26T17:39:42.080Z,98.00
2019-06-26T17:41:08.328Z,98.00
2019-06-26T17:42:33.864Z,98.10
2019-06-26T17:43:59.988Z,98.10
2019-06-26T17:45:25.656Z,98.00
2019-06-26T17:46:51.840Z,98.30
2019-06-26T17:48:17.371Z,98.00
2019-06-26T17:49:43.505Z,97.90
2019-06-26T17:51:09.032Z,97.90
2019-06-26T17:52:38.262Z,97.90
2019-06-26T17:54:02.528Z,97.80
2019-06-26T17:55:28.670Z,97.70
2019-06-26T17:56:54.242Z,97.60
2019-06-26T17:58:20.448Z,97.60
2019-06-26T19:44:14.523Z,99.90
2019-06-26T19:45:40.698Z,99.90
2019-06-26T19:47:06.340Z,99.90
2019-06-26T19:48:32.485Z,99.90
2019-06-26T19:49:58.142Z,99.90
2019-06-26T19:51:27.636Z,99.90
2019-06-26T19:52:53.128Z,99.90
2019-06-26T19:54:27.529Z,99.90
2019-06-26T19:55:46.339Z,99.90
2019-06-26T19:57:12.462Z,99.90
2019-06-26T19:58:38.024Z,99.90
2019-06-26T20:00:04.202Z,99.90
2019-06-26T20:01:29.827Z,99.90
2019-06-26T20:02:56.000Z,99.90
2019-06-26T20:04:21.629Z,99.90
2019-06-26T20:05:48.762Z,99.90
2019-06-26T20:07:14.379Z,99.90
2019-06-26T20:08:53.101Z,99.90
2019-06-26T20:10:08.616Z,99.90
2019-06-26T20:11:34.703Z,99.90
2019-06-26T20:13:00.394Z,99.90
2019-06-26T20:14:26.475Z,99.90
2019-06-26T20:15:52.096Z,99.90
2019-06-26T20:17:18.258Z,99.90
2019-06-26T20:18:43.830Z,99.90
2019-06-26T20:20:10.651Z,99.90
2019-06-26T20:21:36.172Z,99.90
2019-06-26T20:23:02.514Z,99.90
2019-06-26T20:24:42.811Z,99.90
2019-06-26T20:25:55.907Z,99.90
2019-06-26T20:27:21.455Z,99.90
2019-06-26T20:28:47.563Z,99.90
2019-06-26T20:30:13.961Z,99.90
2019-06-26T20:31:40.032Z,99.90
2019-06-26T20:33:05.572Z,99.90
2019-06-26T20:34:31.699Z,99.90
2019-06-26T20:35:57.296Z,99.90
2019-06-26T20:37:23.511Z,99.90
2019-06-26T20:38:49.059Z,99.90
2019-06-26T20:40:15.457Z,99.90
2019-06-26T20:41:41.169Z,99.90
2019-06-26T20:43:07.416Z,99.90
2019-06-26T20:44:33.026Z,99.90
2019-06-26T20:45:59.252Z,99.90
2019-06-26T20:47:24.960Z,99.90
2019-06-26T20:48:51.054Z,99.90
2019-06-26T20:50:17.306Z,99.90
2019-06-26T20:51:43.515Z,99.90
2019-06-26T20:53:09.056Z,99.90
2019-06-26T20:54:35.194Z,99.90
2019-06-26T20:56:00.688Z,99.90
2019-06-26T20:57:26.848Z,99.90
2019-06-26T20:58:52.992Z,99.90
2019-06-26T21:00:22.440Z,99.90
2019-06-26T21:01:46.511Z,99.90
2019-06-26T21:03:12.608Z,99.90
2019-06-26T21:04:38.164Z,99.90
2019-06-26T21:06:04.419Z,99.90
2019-06-26T21:07:29.984Z,99.90
2019-06-26T21:08:56.168Z,99.90
2019-06-26T21:10:21.849Z,99.90
2019-06-26T21:11:47.964Z,99.90
2019-06-26T21:13:13.498Z,99.90
2019-06-26T21:14:39.842Z,99.90
2019-06-26T21:16:05.467Z,99.90
2019-06-26T21:17:31.559Z,99.90
2019-06-26T21:18:57.619Z,99.90
2019-06-26T21:20:23.720Z,99.90
2019-06-26T21:21:49.355Z,99.90
2019-06-26T21:23:18.879Z,99.90
2019-06-26T21:24:42.589Z,99.90
2019-06-26T21:26:08.698Z,99.90
2019-06-26T21:27:34.349Z,99.90
2019-06-26T21:29:00.974Z,99.90
2019-06-26T21:30:26.689Z,99.90
2019-06-26T21:31:52.809Z,99.90
2019-06-26T21:33:18.443Z,99.90
2019-06-26T21:34:44.510Z,99.90
2019-06-26T21:36:10.063Z,99.90
2019-06-26T21:37:36.235Z,99.90
2019-06-26T21:39:01.766Z,99.90
2019-06-26T21:40:27.901Z,99.90
2019-06-26T21:41:53.438Z,99.90
2019-06-26T21:43:19.611Z,99.90
2019-06-26T21:44:45.179Z,99.90
2019-06-26T21:46:11.353Z,99.90
2019-06-26T21:47:36.888Z,99.90
2019-06-26T21:49:03.105Z,99.90
2019-06-26T21:50:29.220Z,99.90
2019-06-26T21:51:55.431Z,99.90
2019-06-26T21:53:20.917Z,99.90
2019-06-26T21:54:46.985Z,99.90
2019-06-26T21:56:12.590Z,99.90
2019-06-26T21:57:38.696Z,99.90
2019-06-26T21:59:04.204Z,99.90
2019-06-26T22:00:32.577Z,99.90
2019-06-26T22:01:58.346Z,99.90
2019-06-26T22:03:24.540Z,99.90
2019-06-26T22:04:50.130Z,99.90
2019-06-26T22:06:16.480Z,99.90
2019-06-26T22:07:42.164Z,99.90
2019-06-26T22:09:09.184Z,99.90
2019-06-26T22:10:34.707Z,99.90
2019-06-26T22:12:01.006Z,99.90
2019-06-26T22:13:26.635Z,99.90
2019-06-26T22:14:52.728Z,99.90
2019-06-26T22:16:18.297Z,99.90
2019-06-26T22:17:44.515Z,99.90
2019-06-26T22:19:10.044Z,99.90
2019-06-26T22:20:36.244Z,99.90
2019-06-26T22:22:01.876Z,99.90
2019-06-26T22:23:28.103Z,99.90
2019-06-26T22:24:53.731Z,99.90
2019-06-26T22:26:19.936Z,99.90
2019-06-26T22:27:45.479Z,99.90
2019-06-26T22:29:11.730Z,99.90
2019-06-26T22:30:37.432Z,99.90
2019-06-26T22:32:03.642Z,99.90
2019-06-26T22:33:29.279Z,99.90
2019-06-26T22:34:55.451Z,99.90
2019-06-26T22:36:21.005Z,99.90
2019-06-26T22:37:47.272Z,99.90
2019-06-26T22:39:13.000Z,99.90
2019-06-26T22:40:39.117Z,99.90
2019-06-26T22:42:04.677Z,99.90
2019-06-26T22:43:30.855Z,99.90
2019-06-26T22:44:56.381Z,99.90
2019-06-26T22:46:22.517Z,99.90
2019-06-26T22:47:48.135Z,99.90
2019-06-26T22:49:14.292Z,99.90
2019-06-26T22:50:39.834Z,99.90
2019-06-26T22:52:06.023Z,99.90